sensor_id;sensor_type;location;lat;lon;timestamp;P1;durP1;ratioP1;P2;durP2;ratioP2
21305;SDS011;10812;51.838;5.838;2023-03-12T00:01:14;4.40;;;2.30;;
21305;SDS011;10812;51.838;5.838;2023-03-12T00:03:43;4.10;;;2.47;;
21305;SDS011;10812;51.838;5.838;2023-03-12T00:06:13;6.80;;;2.30;;
21305;SDS011;10812;51.838;5.838;2023-03-12T00:08:41;4.20;;;2.10;;
21305;SDS011;10812;51.838;5.838;2023-03-12T00:11:11;4.50;;;2.67;;
21305;SDS011;10812;51.838;5.838;2023-03-12T00:13:40;4.13;;;2.03;;
21305;SDS011;10812;51.838;5.838;2023-03-12T00:16:09;5.73;;;2.57;;
21305;SDS011;10812;51.838;5.838;2023-03-12T00:18:39;7.07;;;2.10;;
21305;SDS011;10812;51.838;5.838;2023-03-12T00:21:08;4.13;;;2.23;;
21305;SDS011;10812;51.838;5.838;2023-03-12T00:23:38;4.47;;;2.40;;
21305;SDS011;10812;51.838;5.838;2023-03-12T00:26:06;3.63;;;2.23;;
21305;SDS011;10812;51.838;5.838;2023-03-12T00:28:36;4.07;;;1.67;;
21305;SDS011;10812;51.838;5.838;2023-03-12T00:31:12;6.03;;;2.20;;
21305;SDS011;10812;51.838;5.838;2023-03-12T00:33:41;6.83;;;2.60;;
21305;SDS011;10812;51.838;5.838;2023-03-12T00:36:10;4.07;;;1.90;;
21305;SDS011;10812;51.838;5.838;2023-03-12T00:38:40;4.37;;;1.70;;
21305;SDS011;10812;51.838;5.838;2023-03-12T00:41:08;4.00;;;1.60;;
21305;SDS011;10812;51.838;5.838;2023-03-12T00:43:36;4.10;;;1.70;;
21305;SDS011;10812;51.838;5.838;2023-03-12T00:46:05;2.53;;;1.80;;
21305;SDS011;10812;51.838;5.838;2023-03-12T00:48:33;3.97;;;1.70;;
21305;SDS011;10812;51.838;5.838;2023-03-12T00:51:01;4.33;;;1.60;;
21305;SDS011;10812;51.838;5.838;2023-03-12T00:53:29;3.77;;;1.50;;
21305;SDS011;10812;51.838;5.838;2023-03-12T00:55:59;2.73;;;1.60;;
21305;SDS011;10812;51.838;5.838;2023-03-12T00:58:27;5.40;;;2.07;;
21305;SDS011;10812;51.838;5.838;2023-03-12T01:00:55;4.37;;;1.80;;
21305;SDS011;10812;51.838;5.838;2023-03-12T01:03:25;3.90;;;1.83;;
21305;SDS011;10812;51.838;5.838;2023-03-12T01:05:53;2.57;;;1.70;;
21305;SDS011;10812;51.838;5.838;2023-03-12T01:08:22;2.87;;;2.27;;
21305;SDS011;10812;51.838;5.838;2023-03-12T01:10:50;3.00;;;1.90;;
21305;SDS011;10812;51.838;5.838;2023-03-12T01:13:20;3.60;;;1.60;;
21305;SDS011;10812;51.838;5.838;2023-03-12T01:15:49;3.43;;;1.63;;
21305;SDS011;10812;51.838;5.838;2023-03-12T01:18:17;5.00;;;1.87;;
21305;SDS011;10812;51.838;5.838;2023-03-12T01:20:45;4.60;;;1.40;;
21305;SDS011;10812;51.838;5.838;2023-03-12T01:27:04;2.13;;;1.53;;
21305;SDS011;10812;51.838;5.838;2023-03-12T01:29:33;3.07;;;1.77;;
21305;SDS011;10812;51.838;5.838;2023-03-12T01:32:02;7.43;;;2.13;;
21305;SDS011;10812;51.838;5.838;2023-03-12T01:34:30;3.10;;;1.87;;
21305;SDS011;10812;51.838;5.838;2023-03-12T01:36:58;3.77;;;1.60;;
21305;SDS011;10812;51.838;5.838;2023-03-12T01:39:26;4.27;;;1.83;;
21305;SDS011;10812;51.838;5.838;2023-03-12T01:41:54;3.67;;;1.60;;
21305;SDS011;10812;51.838;5.838;2023-03-12T01:44:23;3.30;;;1.53;;
21305;SDS011;10812;51.838;5.838;2023-03-12T01:46:52;2.87;;;1.63;;
21305;SDS011;10812;51.838;5.838;2023-03-12T01:49:22;4.30;;;1.60;;
21305;SDS011;10812;51.838;5.838;2023-03-12T01:51:53;3.83;;;1.87;;
21305;SDS011;10812;51.838;5.838;2023-03-12T01:54:25;10.73;;;2.60;;
21305;SDS011;10812;51.838;5.838;2023-03-12T01:56:58;3.17;;;1.50;;
21305;SDS011;10812;51.838;5.838;2023-03-12T01:59:29;3.63;;;1.53;;
21305;SDS011;10812;51.838;5.838;2023-03-12T02:02:01;3.10;;;1.50;;
21305;SDS011;10812;51.838;5.838;2023-03-12T02:04:30;7.33;;;2.40;;
21305;SDS011;10812;51.838;5.838;2023-03-12T02:07:01;5.63;;;2.07;;
21305;SDS011;10812;51.838;5.838;2023-03-12T02:09:31;4.17;;;1.83;;
21305;SDS011;10812;51.838;5.838;2023-03-12T02:12:02;4.97;;;2.00;;
21305;SDS011;10812;51.838;5.838;2023-03-12T02:14:31;2.83;;;1.80;;
21305;SDS011;10812;51.838;5.838;2023-03-12T02:16:59;3.57;;;1.60;;
21305;SDS011;10812;51.838;5.838;2023-03-12T02:19:30;6.30;;;1.80;;
21305;SDS011;10812;51.838;5.838;2023-03-12T02:22:04;2.10;;;1.50;;
21305;SDS011;10812;51.838;5.838;2023-03-12T02:24:33;2.60;;;1.43;;
21305;SDS011;10812;51.838;5.838;2023-03-12T02:30:20;3.47;;;1.77;;
21305;SDS011;10812;51.838;5.838;2023-03-12T02:32:49;1.93;;;1.47;;
21305;SDS011;10812;51.838;5.838;2023-03-12T02:35:18;2.53;;;1.70;;
21305;SDS011;10812;51.838;5.838;2023-03-12T02:37:47;4.50;;;1.80;;
21305;SDS011;10812;51.838;5.838;2023-03-12T02:40:17;3.10;;;1.70;;
21305;SDS011;10812;51.838;5.838;2023-03-12T02:42:50;3.23;;;1.70;;
21305;SDS011;10812;51.838;5.838;2023-03-12T02:45:21;5.73;;;1.60;;
21305;SDS011;10812;51.838;5.838;2023-03-12T02:47:51;3.37;;;1.97;;
21305;SDS011;10812;51.838;5.838;2023-03-12T02:50:19;5.10;;;2.10;;
21305;SDS011;10812;51.838;5.838;2023-03-12T02:52:47;4.70;;;2.20;;
21305;SDS011;10812;51.838;5.838;2023-03-12T02:55:15;4.37;;;2.17;;
21305;SDS011;10812;51.838;5.838;2023-03-12T02:57:43;3.77;;;1.80;;
21305;SDS011;10812;51.838;5.838;2023-03-12T03:08:21;1.83;;;1.57;;
21305;SDS011;10812;51.838;5.838;2023-03-12T03:10:49;5.67;;;2.30;;
21305;SDS011;10812;51.838;5.838;2023-03-12T03:13:18;4.33;;;1.67;;
21305;SDS011;10812;51.838;5.838;2023-03-12T03:15:46;7.43;;;1.90;;
21305;SDS011;10812;51.838;5.838;2023-03-12T03:18:14;7.80;;;2.10;;
21305;SDS011;10812;51.838;5.838;2023-03-12T03:20:42;7.30;;;1.87;;
21305;SDS011;10812;51.838;5.838;2023-03-12T03:23:10;7.53;;;2.23;;
21305;SDS011;10812;51.838;5.838;2023-03-12T03:25:39;5.13;;;2.07;;
21305;SDS011;10812;51.838;5.838;2023-03-12T03:28:08;6.23;;;1.60;;
21305;SDS011;10812;51.838;5.838;2023-03-12T03:30:36;4.00;;;2.03;;
21305;SDS011;10812;51.838;5.838;2023-03-12T03:33:04;4.10;;;1.70;;
21305;SDS011;10812;51.838;5.838;2023-03-12T03:35:32;3.67;;;1.43;;
21305;SDS011;10812;51.838;5.838;2023-03-12T03:38:00;3.33;;;1.63;;
21305;SDS011;10812;51.838;5.838;2023-03-12T03:40:29;3.30;;;1.67;;
21305;SDS011;10812;51.838;5.838;2023-03-12T03:42:59;6.53;;;1.93;;
21305;SDS011;10812;51.838;5.838;2023-03-12T03:45:27;5.43;;;2.00;;
21305;SDS011;10812;51.838;5.838;2023-03-12T03:47:55;9.80;;;2.90;;
21305;SDS011;10812;51.838;5.838;2023-03-12T03:50:23;4.53;;;2.10;;
21305;SDS011;10812;51.838;5.838;2023-03-12T03:52:51;5.50;;;1.90;;
21305;SDS011;10812;51.838;5.838;2023-03-12T03:55:19;6.53;;;1.50;;
21305;SDS011;10812;51.838;5.838;2023-03-12T03:57:47;6.23;;;1.70;;
21305;SDS011;10812;51.838;5.838;2023-03-12T04:00:17;4.37;;;2.47;;
21305;SDS011;10812;51.838;5.838;2023-03-12T04:02:46;15.30;;;4.17;;
21305;SDS011;10812;51.838;5.838;2023-03-12T04:05:14;8.83;;;2.70;;
21305;SDS011;10812;51.838;5.838;2023-03-12T04:07:44;4.33;;;2.03;;
21305;SDS011;10812;51.838;5.838;2023-03-12T04:10:14;6.03;;;1.87;;
21305;SDS011;10812;51.838;5.838;2023-03-12T04:12:42;3.73;;;2.30;;
21305;SDS011;10812;51.838;5.838;2023-03-12T04:15:10;6.60;;;1.67;;
21305;SDS011;10812;51.838;5.838;2023-03-12T04:17:40;5.03;;;2.10;;
21305;SDS011;10812;51.838;5.838;2023-03-12T04:20:08;4.33;;;1.90;;
21305;SDS011;10812;51.838;5.838;2023-03-12T04:22:37;2.83;;;1.77;;
21305;SDS011;10812;51.838;5.838;2023-03-12T04:25:06;6.50;;;2.17;;
21305;SDS011;10812;51.838;5.838;2023-03-12T04:27:35;5.70;;;2.27;;
21305;SDS011;10812;51.838;5.838;2023-03-12T04:30:03;7.87;;;3.20;;
21305;SDS011;10812;51.838;5.838;2023-03-12T04:32:31;5.57;;;2.73;;
21305;SDS011;10812;51.838;5.838;2023-03-12T04:35:01;6.60;;;3.00;;
21305;SDS011;10812;51.838;5.838;2023-03-12T04:37:30;9.90;;;3.20;;
21305;SDS011;10812;51.838;5.838;2023-03-12T04:40:00;3.50;;;2.70;;
21305;SDS011;10812;51.838;5.838;2023-03-12T04:42:30;2.17;;;1.90;;
21305;SDS011;10812;51.838;5.838;2023-03-12T04:44:58;5.10;;;2.20;;
21305;SDS011;10812;51.838;5.838;2023-03-12T04:47:26;2.53;;;1.83;;
21305;SDS011;10812;51.838;5.838;2023-03-12T04:49:54;7.47;;;2.60;;
21305;SDS011;10812;51.838;5.838;2023-03-12T04:52:23;5.80;;;2.60;;
21305;SDS011;10812;51.838;5.838;2023-03-12T04:54:52;5.63;;;2.43;;
21305;SDS011;10812;51.838;5.838;2023-03-12T04:57:20;4.23;;;2.00;;
21305;SDS011;10812;51.838;5.838;2023-03-12T04:59:48;4.40;;;2.53;;
21305;SDS011;10812;51.838;5.838;2023-03-12T05:02:18;7.47;;;2.97;;
21305;SDS011;10812;51.838;5.838;2023-03-12T05:04:46;4.47;;;2.30;;
21305;SDS011;10812;51.838;5.838;2023-03-12T05:07:14;3.70;;;2.13;;
21305;SDS011;10812;51.838;5.838;2023-03-12T05:09:43;2.73;;;1.83;;
21305;SDS011;10812;51.838;5.838;2023-03-12T05:12:12;3.03;;;2.27;;
21305;SDS011;10812;51.838;5.838;2023-03-12T05:14:40;6.13;;;2.50;;
21305;SDS011;10812;51.838;5.838;2023-03-12T05:17:08;2.57;;;2.00;;
21305;SDS011;10812;51.838;5.838;2023-03-12T05:19:36;4.87;;;2.00;;
21305;SDS011;10812;51.838;5.838;2023-03-12T05:22:04;6.20;;;2.20;;
21305;SDS011;10812;51.838;5.838;2023-03-12T05:24:32;4.27;;;2.20;;
21305;SDS011;10812;51.838;5.838;2023-03-12T05:27:02;4.83;;;1.83;;
21305;SDS011;10812;51.838;5.838;2023-03-12T05:29:30;5.07;;;2.13;;
21305;SDS011;10812;51.838;5.838;2023-03-12T05:32:00;5.37;;;2.60;;
21305;SDS011;10812;51.838;5.838;2023-03-12T05:34:29;6.17;;;2.63;;
21305;SDS011;10812;51.838;5.838;2023-03-12T05:36:57;2.73;;;1.90;;
21305;SDS011;10812;51.838;5.838;2023-03-12T05:39:26;7.37;;;2.00;;
21305;SDS011;10812;51.838;5.838;2023-03-12T05:41:54;3.80;;;1.80;;
21305;SDS011;10812;51.838;5.838;2023-03-12T05:44:24;3.23;;;2.10;;
21305;SDS011;10812;51.838;5.838;2023-03-12T05:46:52;3.10;;;1.93;;
21305;SDS011;10812;51.838;5.838;2023-03-12T05:49:24;4.87;;;2.30;;
21305;SDS011;10812;51.838;5.838;2023-03-12T05:51:52;3.40;;;1.80;;
21305;SDS011;10812;51.838;5.838;2023-03-12T05:54:20;5.47;;;2.40;;
21305;SDS011;10812;51.838;5.838;2023-03-12T05:56:48;4.80;;;2.10;;
21305;SDS011;10812;51.838;5.838;2023-03-12T05:59:16;4.00;;;2.10;;
21305;SDS011;10812;51.838;5.838;2023-03-12T06:01:46;8.03;;;2.10;;
21305;SDS011;10812;51.838;5.838;2023-03-12T06:04:14;3.17;;;2.10;;
21305;SDS011;10812;51.838;5.838;2023-03-12T06:06:42;5.40;;;2.23;;
21305;SDS011;10812;51.838;5.838;2023-03-12T06:09:10;7.57;;;2.50;;
21305;SDS011;10812;51.838;5.838;2023-03-12T06:11:38;4.93;;;1.97;;
21305;SDS011;10812;51.838;5.838;2023-03-12T06:14:06;7.43;;;2.97;;
21305;SDS011;10812;51.838;5.838;2023-03-12T06:16:34;4.73;;;2.20;;
21305;SDS011;10812;51.838;5.838;2023-03-12T06:19:04;7.77;;;2.53;;
21305;SDS011;10812;51.838;5.838;2023-03-12T06:21:35;6.63;;;3.30;;
21305;SDS011;10812;51.838;5.838;2023-03-12T06:24:03;7.90;;;3.03;;
21305;SDS011;10812;51.838;5.838;2023-03-12T06:26:32;7.37;;;2.83;;
21305;SDS011;10812;51.838;5.838;2023-03-12T06:29:00;11.50;;;4.10;;
21305;SDS011;10812;51.838;5.838;2023-03-12T06:31:28;7.63;;;3.17;;
21305;SDS011;10812;51.838;5.838;2023-03-12T06:33:56;10.43;;;3.40;;
21305;SDS011;10812;51.838;5.838;2023-03-12T06:36:26;12.73;;;4.83;;
21305;SDS011;10812;51.838;5.838;2023-03-12T06:38:55;7.37;;;2.80;;
21305;SDS011;10812;51.838;5.838;2023-03-12T06:41:23;10.53;;;4.13;;
21305;SDS011;10812;51.838;5.838;2023-03-12T06:43:51;9.93;;;2.90;;
21305;SDS011;10812;51.838;5.838;2023-03-12T06:46:19;14.67;;;4.80;;
21305;SDS011;10812;51.838;5.838;2023-03-12T06:48:50;9.93;;;3.13;;
21305;SDS011;10812;51.838;5.838;2023-03-12T06:51:18;4.70;;;2.90;;
21305;SDS011;10812;51.838;5.838;2023-03-12T06:53:48;7.67;;;3.67;;
21305;SDS011;10812;51.838;5.838;2023-03-12T07:03:48;8.73;;;3.50;;
21305;SDS011;10812;51.838;5.838;2023-03-12T07:06:16;17.77;;;4.20;;
21305;SDS011;10812;51.838;5.838;2023-03-12T07:08:48;9.43;;;3.83;;
21305;SDS011;10812;51.838;5.838;2023-03-12T07:11:16;13.97;;;4.37;;
21305;SDS011;10812;51.838;5.838;2023-03-12T07:13:44;6.40;;;3.17;;
21305;SDS011;10812;51.838;5.838;2023-03-12T07:16:12;11.70;;;5.60;;
21305;SDS011;10812;51.838;5.838;2023-03-12T07:18:41;10.47;;;4.50;;
21305;SDS011;10812;51.838;5.838;2023-03-12T07:21:09;13.93;;;5.43;;
21305;SDS011;10812;51.838;5.838;2023-03-12T07:23:37;6.43;;;3.80;;
21305;SDS011;10812;51.838;5.838;2023-03-12T07:26:07;5.27;;;4.07;;
21305;SDS011;10812;51.838;5.838;2023-03-12T07:28:35;9.37;;;3.83;;
21305;SDS011;10812;51.838;5.838;2023-03-12T07:31:03;8.87;;;4.53;;
21305;SDS011;10812;51.838;5.838;2023-03-12T07:33:32;5.83;;;4.07;;
21305;SDS011;10812;51.838;5.838;2023-03-12T07:36:00;10.47;;;4.37;;
21305;SDS011;10812;51.838;5.838;2023-03-12T07:38:29;7.27;;;4.43;;
21305;SDS011;10812;51.838;5.838;2023-03-12T07:40:58;8.20;;;4.53;;
21305;SDS011;10812;51.838;5.838;2023-03-12T07:43:28;9.93;;;4.33;;
21305;SDS011;10812;51.838;5.838;2023-03-12T07:45:58;8.60;;;4.20;;
21305;SDS011;10812;51.838;5.838;2023-03-12T07:48:26;10.10;;;3.87;;
21305;SDS011;10812;51.838;5.838;2023-03-12T07:50:54;12.77;;;5.53;;
21305;SDS011;10812;51.838;5.838;2023-03-12T07:53:22;7.83;;;4.30;;
21305;SDS011;10812;51.838;5.838;2023-03-12T07:55:50;12.60;;;5.17;;
21305;SDS011;10812;51.838;5.838;2023-03-12T07:58:20;7.60;;;4.20;;
21305;SDS011;10812;51.838;5.838;2023-03-12T08:00:49;8.43;;;4.50;;
21305;SDS011;10812;51.838;5.838;2023-03-12T08:03:19;12.57;;;5.83;;
21305;SDS011;10812;51.838;5.838;2023-03-12T08:05:54;9.30;;;5.33;;
21305;SDS011;10812;51.838;5.838;2023-03-12T08:08:23;8.23;;;4.03;;
21305;SDS011;10812;51.838;5.838;2023-03-12T08:10:51;7.93;;;4.03;;
21305;SDS011;10812;51.838;5.838;2023-03-12T08:13:20;8.40;;;3.90;;
21305;SDS011;10812;51.838;5.838;2023-03-12T08:15:51;8.00;;;4.33;;
21305;SDS011;10812;51.838;5.838;2023-03-12T08:18:20;8.73;;;4.47;;
21305;SDS011;10812;51.838;5.838;2023-03-12T08:20:50;7.97;;;4.20;;
21305;SDS011;10812;51.838;5.838;2023-03-12T08:23:18;5.27;;;4.13;;
21305;SDS011;10812;51.838;5.838;2023-03-12T08:25:48;7.97;;;4.63;;
21305;SDS011;10812;51.838;5.838;2023-03-12T08:28:17;8.67;;;5.40;;
21305;SDS011;10812;51.838;5.838;2023-03-12T08:30:46;10.97;;;6.00;;
21305;SDS011;10812;51.838;5.838;2023-03-12T08:33:17;9.77;;;5.93;;
21305;SDS011;10812;51.838;5.838;2023-03-12T08:35:45;20.00;;;6.93;;
21305;SDS011;10812;51.838;5.838;2023-03-12T08:38:13;9.83;;;5.07;;
21305;SDS011;10812;51.838;5.838;2023-03-12T08:40:42;9.03;;;6.00;;
21305;SDS011;10812;51.838;5.838;2023-03-12T08:43:10;8.53;;;5.57;;
21305;SDS011;10812;51.838;5.838;2023-03-12T08:45:39;8.13;;;5.70;;
21305;SDS011;10812;51.838;5.838;2023-03-12T08:48:07;11.27;;;7.33;;
21305;SDS011;10812;51.838;5.838;2023-03-12T08:50:36;9.27;;;5.83;;
21305;SDS011;10812;51.838;5.838;2023-03-12T08:53:05;8.53;;;5.27;;
21305;SDS011;10812;51.838;5.838;2023-03-12T08:55:33;8.63;;;4.83;;
21305;SDS011;10812;51.838;5.838;2023-03-12T08:58:02;8.93;;;6.47;;
21305;SDS011;10812;51.838;5.838;2023-03-12T09:00:30;9.27;;;5.90;;
21305;SDS011;10812;51.838;5.838;2023-03-12T09:02:58;7.00;;;4.93;;
21305;SDS011;10812;51.838;5.838;2023-03-12T09:05:26;12.17;;;6.03;;
21305;SDS011;10812;51.838;5.838;2023-03-12T09:07:57;8.23;;;5.73;;
21305;SDS011;10812;51.838;5.838;2023-03-12T09:10:25;9.70;;;6.33;;
21305;SDS011;10812;51.838;5.838;2023-03-12T09:12:56;9.17;;;6.20;;
21305;SDS011;10812;51.838;5.838;2023-03-12T09:15:24;9.30;;;5.70;;
21305;SDS011;10812;51.838;5.838;2023-03-12T09:17:52;10.50;;;6.43;;
21305;SDS011;10812;51.838;5.838;2023-03-12T09:20:21;7.97;;;6.13;;
21305;SDS011;10812;51.838;5.838;2023-03-12T09:22:50;9.27;;;6.37;;
21305;SDS011;10812;51.838;5.838;2023-03-12T09:25:19;9.37;;;6.63;;
21305;SDS011;10812;51.838;5.838;2023-03-12T09:27:48;11.53;;;6.80;;
21305;SDS011;10812;51.838;5.838;2023-03-12T09:30:17;11.17;;;7.27;;
21305;SDS011;10812;51.838;5.838;2023-03-12T09:32:47;10.97;;;6.23;;
21305;SDS011;10812;51.838;5.838;2023-03-12T09:35:15;11.23;;;7.13;;
21305;SDS011;10812;51.838;5.838;2023-03-12T09:37:46;11.97;;;7.17;;
21305;SDS011;10812;51.838;5.838;2023-03-12T09:40:16;8.70;;;6.83;;
21305;SDS011;10812;51.838;5.838;2023-03-12T09:42:48;8.90;;;6.90;;
21305;SDS011;10812;51.838;5.838;2023-03-12T09:45:20;8.97;;;6.77;;
21305;SDS011;10812;51.838;5.838;2023-03-12T09:47:51;10.80;;;6.87;;
21305;SDS011;10812;51.838;5.838;2023-03-12T09:50:23;12.43;;;7.77;;
21305;SDS011;10812;51.838;5.838;2023-03-12T09:52:56;10.63;;;7.97;;
21305;SDS011;10812;51.838;5.838;2023-03-12T09:55:27;14.83;;;8.53;;
21305;SDS011;10812;51.838;5.838;2023-03-12T09:58:03;13.73;;;9.20;;
21305;SDS011;10812;51.838;5.838;2023-03-12T10:00:32;16.40;;;8.20;;
21305;SDS011;10812;51.838;5.838;2023-03-12T10:03:14;11.77;;;8.33;;
21305;SDS011;10812;51.838;5.838;2023-03-12T10:05:59;14.30;;;8.80;;
21305;SDS011;10812;51.838;5.838;2023-03-12T10:08:34;13.73;;;9.57;;
21305;SDS011;10812;51.838;5.838;2023-03-12T10:11:15;13.90;;;9.17;;
21305;SDS011;10812;51.838;5.838;2023-03-12T10:13:55;14.93;;;9.47;;
21305;SDS011;10812;51.838;5.838;2023-03-12T10:16:33;17.70;;;10.57;;
21305;SDS011;10812;51.838;5.838;2023-03-12T10:19:12;16.63;;;10.70;;
21305;SDS011;10812;51.838;5.838;2023-03-12T10:21:57;15.37;;;10.17;;
21305;SDS011;10812;51.838;5.838;2023-03-12T10:24:36;14.03;;;9.77;;
21305;SDS011;10812;51.838;5.838;2023-03-12T10:27:12;14.47;;;10.17;;
21305;SDS011;10812;51.838;5.838;2023-03-12T10:29:43;19.40;;;11.13;;
21305;SDS011;10812;51.838;5.838;2023-03-12T10:32:15;16.47;;;10.43;;
21305;SDS011;10812;51.838;5.838;2023-03-12T10:34:49;17.20;;;10.30;;
21305;SDS011;10812;51.838;5.838;2023-03-12T10:37:21;17.30;;;11.47;;
21305;SDS011;10812;51.838;5.838;2023-03-12T10:39:52;13.60;;;10.10;;
21305;SDS011;10812;51.838;5.838;2023-03-12T10:42:22;14.97;;;9.70;;
21305;SDS011;10812;51.838;5.838;2023-03-12T10:44:53;16.17;;;11.27;;
21305;SDS011;10812;51.838;5.838;2023-03-12T10:47:31;15.57;;;10.73;;
21305;SDS011;10812;51.838;5.838;2023-03-12T10:50:11;16.13;;;10.90;;
21305;SDS011;10812;51.838;5.838;2023-03-12T10:52:42;17.10;;;10.90;;
21305;SDS011;10812;51.838;5.838;2023-03-12T10:55:15;19.40;;;10.67;;
21305;SDS011;10812;51.838;5.838;2023-03-12T10:57:48;15.97;;;10.30;;
21305;SDS011;10812;51.838;5.838;2023-03-12T11:00:19;18.57;;;10.40;;
21305;SDS011;10812;51.838;5.838;2023-03-12T11:02:57;15.90;;;9.40;;
21305;SDS011;10812;51.838;5.838;2023-03-12T11:05:29;13.73;;;8.73;;
21305;SDS011;10812;51.838;5.838;2023-03-12T11:07:59;13.83;;;8.63;;
21305;SDS011;10812;51.838;5.838;2023-03-12T11:10:40;16.17;;;8.97;;
21305;SDS011;10812;51.838;5.838;2023-03-12T11:13:23;15.03;;;8.77;;
21305;SDS011;10812;51.838;5.838;2023-03-12T11:15:57;12.80;;;8.43;;
21305;SDS011;10812;51.838;5.838;2023-03-12T11:18:28;13.67;;;8.73;;
21305;SDS011;10812;51.838;5.838;2023-03-12T11:23:43;14.33;;;8.37;;
21305;SDS011;10812;51.838;5.838;2023-03-12T11:26:15;12.87;;;8.37;;
21305;SDS011;10812;51.838;5.838;2023-03-12T11:28:46;16.00;;;9.03;;
21305;SDS011;10812;51.838;5.838;2023-03-12T11:31:19;20.00;;;8.87;;
21305;SDS011;10812;51.838;5.838;2023-03-12T11:33:50;11.37;;;7.77;;
21305;SDS011;10812;51.838;5.838;2023-03-12T11:36:24;14.10;;;7.57;;
21305;SDS011;10812;51.838;5.838;2023-03-12T11:39:02;14.27;;;8.53;;
21305;SDS011;10812;51.838;5.838;2023-03-12T11:41:44;14.07;;;7.53;;
21305;SDS011;10812;51.838;5.838;2023-03-12T11:44:27;11.50;;;6.80;;
21305;SDS011;10812;51.838;5.838;2023-03-12T11:47:15;16.97;;;7.23;;
21305;SDS011;10812;51.838;5.838;2023-03-12T11:50:02;14.73;;;6.17;;
21305;SDS011;10812;51.838;5.838;2023-03-12T11:52:45;14.47;;;6.07;;
21305;SDS011;10812;51.838;5.838;2023-03-12T11:55:25;14.13;;;5.30;;
21305;SDS011;10812;51.838;5.838;2023-03-12T11:58:35;15.17;;;6.10;;
21305;SDS011;10812;51.838;5.838;2023-03-12T12:01:12;19.30;;;6.30;;
21305;SDS011;10812;51.838;5.838;2023-03-12T12:03:55;14.57;;;6.30;;
21305;SDS011;10812;51.838;5.838;2023-03-12T12:06:35;14.97;;;5.10;;
21305;SDS011;10812;51.838;5.838;2023-03-12T12:09:16;11.60;;;4.80;;
21305;SDS011;10812;51.838;5.838;2023-03-12T12:11:55;14.93;;;4.90;;
21305;SDS011;10812;51.838;5.838;2023-03-12T12:14:39;26.07;;;5.40;;
21305;SDS011;10812;51.838;5.838;2023-03-12T12:17:29;19.40;;;5.13;;
21305;SDS011;10812;51.838;5.838;2023-03-12T12:20:16;23.53;;;5.07;;
21305;SDS011;10812;51.838;5.838;2023-03-12T12:22:55;15.00;;;5.20;;
21305;SDS011;10812;51.838;5.838;2023-03-12T12:25:37;22.03;;;5.30;;
21305;SDS011;10812;51.838;5.838;2023-03-12T12:28:27;21.20;;;5.50;;
21305;SDS011;10812;51.838;5.838;2023-03-12T12:31:06;15.90;;;4.87;;
21305;SDS011;10812;51.838;5.838;2023-03-12T12:33:50;19.93;;;5.23;;
21305;SDS011;10812;51.838;5.838;2023-03-12T12:36:28;17.20;;;7.40;;
21305;SDS011;10812;51.838;5.838;2023-03-12T12:39:00;18.77;;;6.13;;
21305;SDS011;10812;51.838;5.838;2023-03-12T12:41:36;12.10;;;4.90;;
21305;SDS011;10812;51.838;5.838;2023-03-12T12:44:09;18.87;;;5.60;;
21305;SDS011;10812;51.838;5.838;2023-03-12T12:46:42;16.43;;;6.87;;
21305;SDS011;10812;51.838;5.838;2023-03-12T12:49:15;17.30;;;5.63;;
21305;SDS011;10812;51.838;5.838;2023-03-12T12:51:49;15.47;;;5.23;;
21305;SDS011;10812;51.838;5.838;2023-03-12T12:54:25;19.07;;;6.90;;
21305;SDS011;10812;51.838;5.838;2023-03-12T12:56:59;15.57;;;4.90;;
21305;SDS011;10812;51.838;5.838;2023-03-12T12:59:32;18.50;;;5.10;;
21305;SDS011;10812;51.838;5.838;2023-03-12T13:02:10;19.27;;;4.87;;
21305;SDS011;10812;51.838;5.838;2023-03-12T13:04:43;20.67;;;5.07;;
21305;SDS011;10812;51.838;5.838;2023-03-12T13:07:31;17.63;;;4.50;;
21305;SDS011;10812;51.838;5.838;2023-03-12T13:10:06;14.97;;;4.80;;
21305;SDS011;10812;51.838;5.838;2023-03-12T13:12:55;18.53;;;5.20;;
21305;SDS011;10812;51.838;5.838;2023-03-12T13:15:33;20.40;;;4.97;;
21305;SDS011;10812;51.838;5.838;2023-03-12T13:18:07;17.80;;;4.47;;
21305;SDS011;10812;51.838;5.838;2023-03-12T13:20:45;18.30;;;4.93;;
21305;SDS011;10812;51.838;5.838;2023-03-12T13:23:35;21.23;;;5.57;;
21305;SDS011;10812;51.838;5.838;2023-03-12T13:26:14;19.53;;;5.30;;
21305;SDS011;10812;51.838;5.838;2023-03-12T13:28:59;16.10;;;4.70;;
21305;SDS011;10812;51.838;5.838;2023-03-12T13:31:40;11.87;;;5.00;;
21305;SDS011;10812;51.838;5.838;2023-03-12T13:34:29;20.20;;;5.70;;
21305;SDS011;10812;51.838;5.838;2023-03-12T13:37:20;13.87;;;4.47;;
21305;SDS011;10812;51.838;5.838;2023-03-12T13:40:00;21.30;;;4.83;;
21305;SDS011;10812;51.838;5.838;2023-03-12T13:42:39;17.00;;;4.63;;
21305;SDS011;10812;51.838;5.838;2023-03-12T13:45:21;15.87;;;4.77;;
21305;SDS011;10812;51.838;5.838;2023-03-12T13:47:52;15.87;;;5.30;;
21305;SDS011;10812;51.838;5.838;2023-03-12T13:50:25;20.70;;;4.60;;
21305;SDS011;10812;51.838;5.838;2023-03-12T13:52:59;16.57;;;5.07;;
21305;SDS011;10812;51.838;5.838;2023-03-12T13:55:31;20.27;;;4.50;;
21305;SDS011;10812;51.838;5.838;2023-03-12T13:58:05;16.87;;;3.73;;
21305;SDS011;10812;51.838;5.838;2023-03-12T14:00:37;17.47;;;4.77;;
21305;SDS011;10812;51.838;5.838;2023-03-12T14:03:10;14.97;;;3.77;;
21305;SDS011;10812;51.838;5.838;2023-03-12T14:05:43;17.80;;;4.67;;
21305;SDS011;10812;51.838;5.838;2023-03-12T14:08:32;15.37;;;3.60;;
21305;SDS011;10812;51.838;5.838;2023-03-12T14:11:22;15.17;;;4.13;;
21305;SDS011;10812;51.838;5.838;2023-03-12T14:14:13;14.57;;;4.60;;
21305;SDS011;10812;51.838;5.838;2023-03-12T14:17:12;13.73;;;3.90;;
21305;SDS011;10812;51.838;5.838;2023-03-12T14:19:45;15.90;;;3.20;;
21305;SDS011;10812;51.838;5.838;2023-03-12T14:22:15;17.20;;;4.70;;
21305;SDS011;10812;51.838;5.838;2023-03-12T14:24:48;17.03;;;4.20;;
21305;SDS011;10812;51.838;5.838;2023-03-12T14:27:23;17.20;;;4.23;;
21305;SDS011;10812;51.838;5.838;2023-03-12T14:29:54;13.67;;;3.67;;
21305;SDS011;10812;51.838;5.838;2023-03-12T14:32:25;10.90;;;3.07;;
21305;SDS011;10812;51.838;5.838;2023-03-12T14:34:57;9.43;;;3.10;;
21305;SDS011;10812;51.838;5.838;2023-03-12T14:37:35;12.40;;;4.77;;
21305;SDS011;10812;51.838;5.838;2023-03-12T14:40:07;14.67;;;3.47;;
21305;SDS011;10812;51.838;5.838;2023-03-12T14:42:48;13.23;;;3.17;;
21305;SDS011;10812;51.838;5.838;2023-03-12T14:45:17;15.27;;;3.63;;
21305;SDS011;10812;51.838;5.838;2023-03-12T14:47:51;15.33;;;3.17;;
21305;SDS011;10812;51.838;5.838;2023-03-12T14:50:22;17.87;;;3.20;;
21305;SDS011;10812;51.838;5.838;2023-03-12T14:52:51;12.23;;;3.13;;
21305;SDS011;10812;51.838;5.838;2023-03-12T14:55:21;10.57;;;3.30;;
21305;SDS011;10812;51.838;5.838;2023-03-12T14:58:02;12.47;;;3.10;;
21305;SDS011;10812;51.838;5.838;2023-03-12T15:00:31;17.80;;;3.90;;
21305;SDS011;10812;51.838;5.838;2023-03-12T15:03:02;11.87;;;3.23;;
21305;SDS011;10812;51.838;5.838;2023-03-12T15:05:33;11.83;;;3.27;;
21305;SDS011;10812;51.838;5.838;2023-03-12T15:08:02;18.30;;;3.60;;
21305;SDS011;10812;51.838;5.838;2023-03-12T15:10:31;12.80;;;4.23;;
21305;SDS011;10812;51.838;5.838;2023-03-12T15:13:00;16.53;;;4.17;;
21305;SDS011;10812;51.838;5.838;2023-03-12T15:15:33;16.33;;;4.93;;
21305;SDS011;10812;51.838;5.838;2023-03-12T15:18:11;19.13;;;5.67;;
21305;SDS011;10812;51.838;5.838;2023-03-12T15:20:42;22.37;;;4.33;;
21305;SDS011;10812;51.838;5.838;2023-03-12T15:23:11;18.37;;;4.17;;
21305;SDS011;10812;51.838;5.838;2023-03-12T15:25:40;17.10;;;4.17;;
21305;SDS011;10812;51.838;5.838;2023-03-12T15:28:24;19.00;;;4.33;;
21305;SDS011;10812;51.838;5.838;2023-03-12T15:31:04;19.40;;;4.70;;
21305;SDS011;10812;51.838;5.838;2023-03-12T15:33:36;18.27;;;4.70;;